createdAt,value
2023-02-06T00:00:07.836Z,7.93
2023-02-06T00:04:13.000Z,6.30
2023-02-06T00:08:18.300Z,5.07
2023-02-06T00:12:23.701Z,7.07
2023-02-06T00:16:29.170Z,7.60
2023-02-06T00:20:32.585Z,9.23
2023-02-06T00:24:37.360Z,6.30
2023-02-06T00:28:40.926Z,6.50
2023-02-06T00:32:44.306Z,5.90
2023-02-06T00:36:47.766Z,14.47
2023-02-06T00:40:52.486Z,8.87
2023-02-06T00:44:55.944Z,6.67
2023-02-06T00:48:59.249Z,6.80
2023-02-06T00:53:03.099Z,6.40
2023-02-06T00:57:07.838Z,5.63
2023-02-06T01:01:11.440Z,6.10
2023-02-06T01:05:15.080Z,4.10
2023-02-06T01:09:19.739Z,7.50
2023-02-06T01:13:24.543Z,4.13
2023-02-06T01:17:27.939Z,6.60
2023-02-06T01:21:31.308Z,9.63
2023-02-06T01:25:34.915Z,11.73
2023-02-06T01:29:39.884Z,5.03
2023-02-06T01:33:43.315Z,6.53
2023-02-06T01:37:46.659Z,4.17
2023-02-06T01:41:51.126Z,5.70
2023-02-06T01:45:55.906Z,7.87
2023-02-06T01:50:00.250Z,7.03
2023-02-06T01:54:06.330Z,5.53
2023-02-06T01:58:12.510Z,5.20
2023-02-06T02:02:18.408Z,5.47
2023-02-06T02:06:26.204Z,5.50
2023-02-06T02:10:32.219Z,7.13
2023-02-06T02:14:36.028Z,8.63
2023-02-06T02:18:55.940Z,9.87
2023-02-06T02:23:07.358Z,4.77
2023-02-06T02:27:40.586Z,10.00
2023-02-06T02:32:31.297Z,4.27
2023-02-06T02:36:41.185Z,6.17
2023-02-06T02:40:52.113Z,6.63
2023-02-06T02:45:00.003Z,4.50
2023-02-06T02:49:06.862Z,4.20
2023-02-06T02:53:13.013Z,7.80
2023-02-06T02:57:21.788Z,6.00
2023-02-06T03:01:32.290Z,6.70
2023-02-06T03:05:37.982Z,8.43
2023-02-06T03:09:51.782Z,6.33
2023-02-06T03:13:59.962Z,8.70
2023-02-06T03:18:08.986Z,6.30
2023-02-06T03:22:13.339Z,5.60
2023-02-06T03:26:21.684Z,7.67
2023-02-06T03:30:26.199Z,6.43
2023-02-06T03:34:36.798Z,5.13
2023-02-06T03:38:40.164Z,7.20
2023-02-06T03:42:49.782Z,6.80
2023-02-06T03:46:55.794Z,4.47
2023-02-06T03:51:04.209Z,5.00
2023-02-06T03:55:11.033Z,5.00
2023-02-06T03:59:16.528Z,7.50
2023-02-06T04:03:21.555Z,3.40
2023-02-06T04:07:27.602Z,10.67
2023-02-06T04:11:30.864Z,4.30
2023-02-06T04:15:36.134Z,8.00
2023-02-06T04:19:39.949Z,5.27
2023-02-06T04:23:43.414Z,5.57
2023-02-06T04:27:46.797Z,6.43
2023-02-06T04:31:51.619Z,4.70
2023-02-06T04:35:54.864Z,6.80
2023-02-06T04:39:58.209Z,4.93
2023-02-06T04:44:01.823Z,5.50
2023-02-06T04:48:06.711Z,5.37
2023-02-06T04:52:10.145Z,3.93
2023-02-06T04:56:14.370Z,4.30
2023-02-06T05:00:18.417Z,3.27
2023-02-06T05:04:23.149Z,3.40
2023-02-06T05:08:26.412Z,4.77
2023-02-06T05:12:30.185Z,5.83
2023-02-06T05:16:33.473Z,4.00
2023-02-06T05:20:38.140Z,4.87
2023-02-06T05:24:42.537Z,3.67
2023-02-06T05:28:46.073Z,10.10
2023-02-06T05:32:50.846Z,6.20
2023-02-06T05:36:55.899Z,4.07
2023-02-06T05:40:59.914Z,4.03
2023-02-06T05:45:03.537Z,6.97
2023-02-06T05:49:07.197Z,19.73
2023-02-06T05:53:12.192Z,14.97
2023-02-06T05:57:16.121Z,12.70
2023-02-06T06:01:19.632Z,15.77
2023-02-06T06:05:23.511Z,9.27
2023-02-06T06:09:29.404Z,16.43
2023-02-06T06:13:33.870Z,6.90
2023-02-06T06:17:37.406Z,8.23
2023-02-06T06:21:41.114Z,6.70
2023-02-06T06:25:48.318Z,9.63
2023-02-06T06:29:52.221Z,6.67
2023-02-06T06:33:56.073Z,7.63
2023-02-06T06:37:59.731Z,8.07
2023-02-06T06:42:05.563Z,7.60
2023-02-06T06:46:09.663Z,5.33
2023-02-06T06:50:13.231Z,5.60
2023-02-06T06:54:17.332Z,8.87
2023-02-06T06:58:22.360Z,8.73
2023-02-06T07:02:26.030Z,9.33
2023-02-06T07:06:29.641Z,9.67
2023-02-06T07:10:33.182Z,6.20
2023-02-06T07:14:41.102Z,10.20
2023-02-06T07:18:44.597Z,9.50
2023-02-06T07:22:50.407Z,10.30
2023-02-06T07:26:53.854Z,14.73
2023-02-06T07:31:01.601Z,17.67
2023-02-06T07:35:06.411Z,12.10
2023-02-06T07:39:10.519Z,12.27
2023-02-06T07:43:14.174Z,19.93
2023-02-06T07:47:19.377Z,12.40
2023-02-06T07:51:23.118Z,17.50
2023-02-06T07:55:27.437Z,15.00
2023-02-06T07:59:31.368Z,10.77
2023-02-06T08:03:37.053Z,11.33
2023-02-06T08:07:40.678Z,10.10
2023-02-06T08:11:46.690Z,19.97
2023-02-06T08:15:50.242Z,16.53
2023-02-06T08:19:55.296Z,12.37
2023-02-06T08:24:01.377Z,15.07
2023-02-06T08:28:05.011Z,12.80
2023-02-06T08:32:08.498Z,16.40
2023-02-06T08:36:14.595Z,14.50
2023-02-06T08:40:18.316Z,15.70
2023-02-06T08:44:22.327Z,14.40
2023-02-06T08:48:26.366Z,8.57
2023-02-06T08:52:31.643Z,10.87
2023-02-06T08:56:37.677Z,16.13
2023-02-06T09:00:41.270Z,12.20
2023-02-06T09:04:44.880Z,10.63
2023-02-06T09:08:49.835Z,11.70
2023-02-06T09:12:55.264Z,16.90
2023-02-06T09:16:59.304Z,9.97
2023-02-06T09:21:08.039Z,10.70
2023-02-06T09:25:13.073Z,14.53
2023-02-06T09:29:16.644Z,10.63
2023-02-06T09:33:21.385Z,9.90
2023-02-06T09:37:25.050Z,10.93
2023-02-06T09:41:33.861Z,11.87
2023-02-06T09:45:38.914Z,8.80
2023-02-06T09:49:47.069Z,8.40
2023-02-06T09:54:05.707Z,9.73
2023-02-06T09:58:22.653Z,9.90
2023-02-06T10:02:51.889Z,12.63
2023-02-06T10:07:01.875Z,9.97
2023-02-06T10:11:10.995Z,16.37
2023-02-06T10:15:21.204Z,12.73
2023-02-06T10:19:34.921Z,11.97
2023-02-06T10:23:47.669Z,12.40
2023-02-06T10:27:55.962Z,11.63
2023-02-06T10:32:13.879Z,10.00
2023-02-06T10:36:30.647Z,9.20
2023-02-06T10:40:45.343Z,8.40
2023-02-06T10:45:09.561Z,11.60
2023-02-06T10:49:28.040Z,9.00
2023-02-06T10:53:36.261Z,10.80
2023-02-06T10:57:40.937Z,12.10
2023-02-06T11:01:45.930Z,11.67
2023-02-06T11:05:52.624Z,15.87
2023-02-06T11:09:56.217Z,9.90
2023-02-06T11:14:05.777Z,11.17
2023-02-06T11:18:15.626Z,9.17
2023-02-06T11:22:31.237Z,8.70
2023-02-06T11:26:42.512Z,9.00
2023-02-06T11:30:58.805Z,9.80
2023-02-06T11:35:05.032Z,10.57
2023-02-06T11:39:24.961Z,13.07
2023-02-06T11:43:31.813Z,12.33
2023-02-06T11:47:38.055Z,11.70
2023-02-06T11:51:51.646Z,10.17
2023-02-06T11:56:16.235Z,13.20
2023-02-06T12:00:24.842Z,10.17
2023-02-06T12:04:34.193Z,10.40
2023-02-06T12:08:47.423Z,9.03
2023-02-06T12:12:55.491Z,12.47
2023-02-06T12:17:00.626Z,9.80
2023-02-06T12:21:08.127Z,10.53
2023-02-06T12:25:25.893Z,13.53
2023-02-06T12:29:36.349Z,14.97
2023-02-06T12:33:44.468Z,12.40
2023-02-06T12:37:53.414Z,11.30
2023-02-06T12:42:38.508Z,12.80
2023-02-06T12:46:45.791Z,10.77
2023-02-06T12:51:05.655Z,9.67
2023-02-06T12:55:17.775Z,10.43
2023-02-06T12:59:57.526Z,13.93
2023-02-06T13:04:06.375Z,9.17
2023-02-06T13:08:11.956Z,14.13
2023-02-06T13:12:17.366Z,10.67
2023-02-06T13:16:21.204Z,12.40
2023-02-06T13:20:27.269Z,11.53
2023-02-06T13:24:31.002Z,12.93
2023-02-06T13:29:03.295Z,11.23
2023-02-06T13:33:15.579Z,10.30
2023-02-06T13:37:34.285Z,13.63
2023-02-06T13:41:38.604Z,13.93
2023-02-06T13:45:45.648Z,13.90
2023-02-06T13:50:24.294Z,10.80
2023-02-06T13:55:01.326Z,12.77
2023-02-06T13:59:11.860Z,13.60
2023-02-06T14:03:30.675Z,14.00
2023-02-06T14:07:50.506Z,11.80
2023-02-06T14:12:23.271Z,13.43
2023-02-06T14:16:41.151Z,12.63
2023-02-06T14:20:59.864Z,12.87
2023-02-06T14:25:21.949Z,11.40
2023-02-06T14:29:37.434Z,13.57
2023-02-06T14:34:03.800Z,13.87
2023-02-06T14:38:36.363Z,11.87
2023-02-06T14:42:42.976Z,11.60
2023-02-06T14:46:48.303Z,11.50
2023-02-06T14:50:56.442Z,13.20
2023-02-06T14:55:00.091Z,13.00
2023-02-06T14:59:18.046Z,12.60
2023-02-06T15:03:28.186Z,11.80
2023-02-06T15:07:33.685Z,15.07
2023-02-06T15:11:36.958Z,11.63
2023-02-06T15:15:53.699Z,16.47
2023-02-06T15:19:58.686Z,15.43
2023-02-06T15:24:09.332Z,20.00
2023-02-06T15:28:20.314Z,13.97
2023-02-06T15:32:29.482Z,14.97
2023-02-06T15:36:37.072Z,13.80
2023-02-06T15:40:43.365Z,14.53
2023-02-06T15:44:48.888Z,11.13
2023-02-06T15:48:56.761Z,13.00
2023-02-06T15:53:01.823Z,13.03
2023-02-06T15:57:08.234Z,13.30
2023-02-06T16:01:18.245Z,12.70
2023-02-06T16:05:30.633Z,12.87
2023-02-06T16:09:42.288Z,10.43
2023-02-06T16:13:47.359Z,11.67
2023-02-06T16:17:51.069Z,13.77
2023-02-06T16:22:07.462Z,10.77
2023-02-06T16:26:20.267Z,9.97
2023-02-06T16:30:29.876Z,12.67
2023-02-06T16:34:40.355Z,12.57
2023-02-06T16:38:51.180Z,14.40
2023-02-06T16:43:03.419Z,16.17
2023-02-06T16:47:07.419Z,11.13
2023-02-06T16:51:15.442Z,12.63
2023-02-06T16:55:23.191Z,12.53
2023-02-06T16:59:28.631Z,21.90
2023-02-06T17:03:33.010Z,18.03
2023-02-06T17:07:36.767Z,14.47
2023-02-06T17:11:40.168Z,18.30
2023-02-06T17:15:47.577Z,13.23
2023-02-06T17:19:52.019Z,14.57
2023-02-06T17:24:03.888Z,14.80
2023-02-06T17:28:09.410Z,17.67
2023-02-06T17:32:16.305Z,16.60
2023-02-06T17:36:29.261Z,17.03
2023-02-06T17:40:36.617Z,15.70
2023-02-06T17:44:42.681Z,16.30
2023-02-06T17:48:48.996Z,23.73
2023-02-06T17:52:56.231Z,16.50
2023-02-06T17:57:00.098Z,14.53
2023-02-06T18:01:04.383Z,19.33
2023-02-06T18:05:09.848Z,17.10
2023-02-06T18:09:15.970Z,15.50
2023-02-06T18:13:21.457Z,17.77
2023-02-06T18:17:25.903Z,20.00
2023-02-06T18:21:32.016Z,20.80
2023-02-06T18:25:35.745Z,20.30
2023-02-06T18:29:49.917Z,21.40
2023-02-06T18:33:55.109Z,21.80
2023-02-06T18:38:01.351Z,18.63
2023-02-06T18:42:23.463Z,24.70
2023-02-06T18:46:28.360Z,21.07
2023-02-06T18:50:38.377Z,21.53
2023-02-06T18:54:46.000Z,20.50
2023-02-06T18:58:51.136Z,20.27
2023-02-06T19:02:57.877Z,21.07
2023-02-06T19:07:07.487Z,23.57
2023-02-06T19:11:16.103Z,25.17
2023-02-06T19:15:22.433Z,20.53
2023-02-06T19:19:29.107Z,15.07
2023-02-06T19:23:44.133Z,23.23
2023-02-06T19:27:53.228Z,16.90
2023-02-06T19:32:05.534Z,16.43
2023-02-06T19:36:15.529Z,21.73
2023-02-06T19:40:23.937Z,22.37
2023-02-06T19:44:31.216Z,26.10
2023-02-06T19:48:36.250Z,15.23
2023-02-06T19:52:40.738Z,20.60
2023-02-06T19:56:48.370Z,19.20
2023-02-06T20:00:58.597Z,17.57
2023-02-06T20:05:03.811Z,19.63
2023-02-06T20:09:08.815Z,18.43
2023-02-06T20:13:16.090Z,26.40
2023-02-06T20:17:22.159Z,19.20
2023-02-06T20:21:36.887Z,27.73
2023-02-06T20:25:42.474Z,24.30
2023-02-06T20:29:48.893Z,18.43
2023-02-06T20:33:54.711Z,19.17
2023-02-06T20:37:59.258Z,14.00
2023-02-06T20:42:04.285Z,17.03
2023-02-06T20:46:08.557Z,19.53
2023-02-06T20:50:15.106Z,23.73
2023-02-06T20:54:20.161Z,17.53
2023-02-06T20:58:26.958Z,21.47
2023-02-06T21:02:31.653Z,15.17
2023-02-06T21:06:45.083Z,19.93
2023-02-06T21:10:51.106Z,16.93
2023-02-06T21:14:55.210Z,14.73
2023-02-06T21:19:00.452Z,19.87
2023-02-06T21:23:06.055Z,18.53
2023-02-06T21:27:10.298Z,17.47
2023-02-06T21:31:16.963Z,22.27
2023-02-06T21:35:20.630Z,17.90
2023-02-06T21:39:27.213Z,28.37
2023-02-06T21:43:30.597Z,22.27
2023-02-06T21:47:35.238Z,20.17
2023-02-06T21:51:38.678Z,22.30
2023-02-06T21:55:47.092Z,28.77
2023-02-06T21:59:50.365Z,15.40
2023-02-06T22:03:54.057Z,24.13
2023-02-06T22:07:58.843Z,18.80
2023-02-06T22:12:05.632Z,19.40
2023-02-06T22:16:10.275Z,25.27
2023-02-06T22:20:16.108Z,19.10
2023-02-06T22:24:20.496Z,23.23
2023-02-06T22:28:25.321Z,29.60
2023-02-06T22:32:28.639Z,17.77
2023-02-06T22:36:34.803Z,17.60
2023-02-06T22:40:38.101Z,16.23
2023-02-06T22:44:44.900Z,17.00
2023-02-06T22:48:48.390Z,26.27
2023-02-06T22:53:10.634Z,21.27
2023-02-06T22:57:13.882Z,15.17
2023-02-06T23:01:20.692Z,12.87
2023-02-06T23:05:23.985Z,15.07
2023-02-06T23:09:29.632Z,15.30
2023-02-06T23:13:33.404Z,20.03
2023-02-06T23:17:38.125Z,19.03
2023-02-06T23:21:43.874Z,13.90
2023-02-06T23:25:47.866Z,17.07
2023-02-06T23:29:51.299Z,15.27
2023-02-06T23:33:56.478Z,17.57
2023-02-06T23:37:59.802Z,18.93
2023-02-06T23:42:03.088Z,15.13
2023-02-06T23:46:10.378Z,13.60
2023-02-06T23:50:16.889Z,15.60
2023-02-06T23:54:20.234Z,16.10
2023-02-06T23:58:23.524Z,15.77
